sensor_id;sensor_type;location;lat;lon;timestamp;P1;durP1;ratioP1;P2;durP2;ratioP2
5195;SDS011;2617;51.006;12.436;2023-10-31T00:00:07;14.60;;;7.03;;
5195;SDS011;2617;51.006;12.436;2023-10-31T00:05:09;8.67;;;6.50;;
5195;SDS011;2617;51.006;12.436;2023-10-31T00:10:11;8.35;;;6.53;;
5195;SDS011;2617;51.006;12.436;2023-10-31T00:15:14;6.90;;;5.90;;
5195;SDS011;2617;51.006;12.436;2023-10-31T00:20:15;10.15;;;6.20;;
5195;SDS011;2617;51.006;12.436;2023-10-31T00:25:18;8.50;;;6.33;;
5195;SDS011;2617;51.006;12.436;2023-10-31T00:30:22;6.57;;;5.63;;
5195;SDS011;2617;51.006;12.436;2023-10-31T00:35:23;8.20;;;6.28;;
5195;SDS011;2617;51.006;12.436;2023-10-31T00:40:25;7.23;;;5.67;;
5195;SDS011;2617;51.006;12.436;2023-10-31T00:45:27;12.30;;;6.80;;
5195;SDS011;2617;51.006;12.436;2023-10-31T00:50:29;7.90;;;6.20;;
5195;SDS011;2617;51.006;12.436;2023-10-31T00:55:31;7.83;;;6.70;;
5195;SDS011;2617;51.006;12.436;2023-10-31T01:00:34;9.47;;;6.63;;
5195;SDS011;2617;51.006;12.436;2023-10-31T01:05:36;8.13;;;6.27;;
5195;SDS011;2617;51.006;12.436;2023-10-31T01:10:38;8.68;;;6.10;;
5195;SDS011;2617;51.006;12.436;2023-10-31T01:15:40;9.83;;;5.77;;
5195;SDS011;2617;51.006;12.436;2023-10-31T01:20:42;7.37;;;5.97;;
5195;SDS011;2617;51.006;12.436;2023-10-31T01:25:44;7.80;;;6.17;;
5195;SDS011;2617;51.006;12.436;2023-10-31T01:30:46;9.30;;;5.73;;
5195;SDS011;2617;51.006;12.436;2023-10-31T01:35:48;12.60;;;5.70;;
5195;SDS011;2617;51.006;12.436;2023-10-31T01:40:49;6.97;;;5.20;;
5195;SDS011;2617;51.006;12.436;2023-10-31T01:45:52;10.60;;;5.40;;
5195;SDS011;2617;51.006;12.436;2023-10-31T01:50:54;7.07;;;6.07;;
5195;SDS011;2617;51.006;12.436;2023-10-31T01:55:55;6.80;;;5.70;;
5195;SDS011;2617;51.006;12.436;2023-10-31T02:00:57;6.37;;;5.40;;
5195;SDS011;2617;51.006;12.436;2023-10-31T02:05:59;6.03;;;5.03;;
5195;SDS011;2617;51.006;12.436;2023-10-31T02:11:00;7.43;;;5.07;;
5195;SDS011;2617;51.006;12.436;2023-10-31T02:16:04;5.37;;;4.07;;
5195;SDS011;2617;51.006;12.436;2023-10-31T02:21:07;7.73;;;5.33;;
5195;SDS011;2617;51.006;12.436;2023-10-31T02:26:09;8.83;;;5.37;;
5195;SDS011;2617;51.006;12.436;2023-10-31T02:31:11;9.43;;;5.00;;
5195;SDS011;2617;51.006;12.436;2023-10-31T02:36:13;9.77;;;4.78;;
5195;SDS011;2617;51.006;12.436;2023-10-31T02:41:15;7.80;;;3.80;;
5195;SDS011;2617;51.006;12.436;2023-10-31T02:46:18;6.70;;;3.90;;
5195;SDS011;2617;51.006;12.436;2023-10-31T02:51:19;6.20;;;3.73;;
5195;SDS011;2617;51.006;12.436;2023-10-31T02:56:21;7.18;;;4.10;;
5195;SDS011;2617;51.006;12.436;2023-10-31T03:01:23;3.75;;;3.45;;
5195;SDS011;2617;51.006;12.436;2023-10-31T03:06:25;4.20;;;3.30;;
5195;SDS011;2617;51.006;12.436;2023-10-31T03:11:27;4.57;;;3.20;;
5195;SDS011;2617;51.006;12.436;2023-10-31T03:16:29;3.90;;;2.97;;
5195;SDS011;2617;51.006;12.436;2023-10-31T03:21:31;3.10;;;2.80;;
5195;SDS011;2617;51.006;12.436;2023-10-31T03:26:33;3.07;;;2.87;;
5195;SDS011;2617;51.006;12.436;2023-10-31T03:31:35;3.73;;;3.40;;
5195;SDS011;2617;51.006;12.436;2023-10-31T03:36:36;4.80;;;3.30;;
5195;SDS011;2617;51.006;12.436;2023-10-31T03:41:39;4.50;;;3.03;;
5195;SDS011;2617;51.006;12.436;2023-10-31T03:46:41;3.83;;;3.53;;
5195;SDS011;2617;51.006;12.436;2023-10-31T03:51:43;8.20;;;3.50;;
5195;SDS011;2617;51.006;12.436;2023-10-31T03:56:45;3.97;;;3.60;;
5195;SDS011;2617;51.006;12.436;2023-10-31T04:01:47;5.35;;;4.03;;
5195;SDS011;2617;51.006;12.436;2023-10-31T04:06:49;3.97;;;3.60;;
5195;SDS011;2617;51.006;12.436;2023-10-31T04:11:51;3.40;;;2.90;;
5195;SDS011;2617;51.006;12.436;2023-10-31T04:16:53;4.62;;;2.62;;
5195;SDS011;2617;51.006;12.436;2023-10-31T04:21:54;3.67;;;2.17;;
5195;SDS011;2617;51.006;12.436;2023-10-31T04:26:56;3.25;;;2.50;;
5195;SDS011;2617;51.006;12.436;2023-10-31T04:31:59;2.60;;;2.40;;
5195;SDS011;2617;51.006;12.436;2023-10-31T04:37:00;3.40;;;1.83;;
5195;SDS011;2617;51.006;12.436;2023-10-31T04:42:02;2.00;;;1.90;;
5195;SDS011;2617;51.006;12.436;2023-10-31T04:47:04;1.60;;;1.50;;
5195;SDS011;2617;51.006;12.436;2023-10-31T04:52:06;1.53;;;1.00;;
5195;SDS011;2617;51.006;12.436;2023-10-31T04:57:10;0.90;;;0.90;;
5195;SDS011;2617;51.006;12.436;2023-10-31T05:02:11;0.80;;;0.80;;
5195;SDS011;2617;51.006;12.436;2023-10-31T05:07:13;0.77;;;0.77;;
5195;SDS011;2617;51.006;12.436;2023-10-31T05:12:15;0.90;;;0.90;;
5195;SDS011;2617;51.006;12.436;2023-10-31T05:17:16;0.88;;;0.88;;
5195;SDS011;2617;51.006;12.436;2023-10-31T05:22:18;0.70;;;0.70;;
5195;SDS011;2617;51.006;12.436;2023-10-31T05:27:20;0.77;;;0.60;;
5195;SDS011;2617;51.006;12.436;2023-10-31T05:32:22;1.90;;;0.53;;
5195;SDS011;2617;51.006;12.436;2023-10-31T05:37:24;1.23;;;0.70;;
5195;SDS011;2617;51.006;12.436;2023-10-31T05:42:26;2.80;;;0.68;;
5195;SDS011;2617;51.006;12.436;2023-10-31T05:47:27;1.10;;;0.70;;
5195;SDS011;2617;51.006;12.436;2023-10-31T05:52:29;1.03;;;0.67;;
5195;SDS011;2617;51.006;12.436;2023-10-31T05:57:31;0.60;;;0.60;;
5195;SDS011;2617;51.006;12.436;2023-10-31T06:02:33;0.80;;;0.50;;
5195;SDS011;2617;51.006;12.436;2023-10-31T06:07:35;1.93;;;0.60;;
5195;SDS011;2617;51.006;12.436;2023-10-31T06:12:37;0.77;;;0.50;;
5195;SDS011;2617;51.006;12.436;2023-10-31T06:17:39;0.60;;;0.60;;
5195;SDS011;2617;51.006;12.436;2023-10-31T06:22:41;0.73;;;0.50;;
5195;SDS011;2617;51.006;12.436;2023-10-31T06:27:43;0.60;;;0.50;;
5195;SDS011;2617;51.006;12.436;2023-10-31T06:32:45;0.50;;;0.50;;
5195;SDS011;2617;51.006;12.436;2023-10-31T06:37:48;5.57;;;0.67;;
5195;SDS011;2617;51.006;12.436;2023-10-31T06:42:49;0.50;;;0.50;;
5195;SDS011;2617;51.006;12.436;2023-10-31T06:47:51;0.40;;;0.40;;
5195;SDS011;2617;51.006;12.436;2023-10-31T06:52:54;0.40;;;0.40;;
5195;SDS011;2617;51.006;12.436;2023-10-31T06:57:55;0.60;;;0.60;;
5195;SDS011;2617;51.006;12.436;2023-10-31T07:02:57;0.40;;;0.40;;
5195;SDS011;2617;51.006;12.436;2023-10-31T07:07:59;1.40;;;0.40;;
5195;SDS011;2617;51.006;12.436;2023-10-31T07:13:01;0.50;;;0.50;;
5195;SDS011;2617;51.006;12.436;2023-10-31T07:18:03;0.50;;;0.50;;
5195;SDS011;2617;51.006;12.436;2023-10-31T07:23:06;0.30;;;0.30;;
5195;SDS011;2617;51.006;12.436;2023-10-31T07:28:07;0.30;;;0.30;;
5195;SDS011;2617;51.006;12.436;2023-10-31T07:33:10;1.37;;;0.50;;
5195;SDS011;2617;51.006;12.436;2023-10-31T07:38:11;0.40;;;0.40;;
5195;SDS011;2617;51.006;12.436;2023-10-31T07:43:15;0.40;;;0.40;;
5195;SDS011;2617;51.006;12.436;2023-10-31T07:48:17;0.37;;;0.37;;
5195;SDS011;2617;51.006;12.436;2023-10-31T07:53:18;1.13;;;0.40;;
5195;SDS011;2617;51.006;12.436;2023-10-31T07:58:20;0.40;;;0.40;;
5195;SDS011;2617;51.006;12.436;2023-10-31T08:03:22;1.17;;;0.40;;
5195;SDS011;2617;51.006;12.436;2023-10-31T08:08:23;0.50;;;0.50;;
5195;SDS011;2617;51.006;12.436;2023-10-31T08:13:25;0.40;;;0.40;;
5195;SDS011;2617;51.006;12.436;2023-10-31T08:18:27;0.30;;;0.30;;
5195;SDS011;2617;51.006;12.436;2023-10-31T08:23:29;0.40;;;0.40;;
5195;SDS011;2617;51.006;12.436;2023-10-31T08:28:31;1.20;;;0.67;;
5195;SDS011;2617;51.006;12.436;2023-10-31T08:33:33;0.40;;;0.40;;
5195;SDS011;2617;51.006;12.436;2023-10-31T08:38:35;1.03;;;0.60;;
5195;SDS011;2617;51.006;12.436;2023-10-31T08:43:38;0.47;;;0.47;;
5195;SDS011;2617;51.006;12.436;2023-10-31T08:48:40;0.70;;;0.40;;
5195;SDS011;2617;51.006;12.436;2023-10-31T08:53:42;1.37;;;0.40;;
5195;SDS011;2617;51.006;12.436;2023-10-31T08:58:43;0.40;;;0.40;;
5195;SDS011;2617;51.006;12.436;2023-10-31T09:03:45;1.47;;;0.40;;
5195;SDS011;2617;51.006;12.436;2023-10-31T09:08:47;1.30;;;0.40;;
5195;SDS011;2617;51.006;12.436;2023-10-31T09:13:49;0.50;;;0.40;;
5195;SDS011;2617;51.006;12.436;2023-10-31T09:18:51;0.30;;;0.30;;
5195;SDS011;2617;51.006;12.436;2023-10-31T09:23:53;0.32;;;0.32;;
5195;SDS011;2617;51.006;12.436;2023-10-31T09:28:55;0.40;;;0.40;;
5195;SDS011;2617;51.006;12.436;2023-10-31T09:33:57;2.20;;;0.40;;
5195;SDS011;2617;51.006;12.436;2023-10-31T09:38:59;0.40;;;0.40;;
5195;SDS011;2617;51.006;12.436;2023-10-31T09:44:01;0.83;;;0.40;;
5195;SDS011;2617;51.006;12.436;2023-10-31T09:49:03;0.43;;;0.37;;
5195;SDS011;2617;51.006;12.436;2023-10-31T09:54:05;1.17;;;0.50;;
5195;SDS011;2617;51.006;12.436;2023-10-31T09:59:07;0.40;;;0.40;;
5195;SDS011;2617;51.006;12.436;2023-10-31T10:04:09;0.40;;;0.40;;
5195;SDS011;2617;51.006;12.436;2023-10-31T10:09:11;0.60;;;0.60;;
5195;SDS011;2617;51.006;12.436;2023-10-31T10:14:13;0.40;;;0.40;;
5195;SDS011;2617;51.006;12.436;2023-10-31T10:19:17;4.23;;;0.50;;
5195;SDS011;2617;51.006;12.436;2023-10-31T10:24:20;1.40;;;0.35;;
5195;SDS011;2617;51.006;12.436;2023-10-31T10:29:23;0.40;;;0.40;;
5195;SDS011;2617;51.006;12.436;2023-10-31T10:34:24;0.50;;;0.50;;
5195;SDS011;2617;51.006;12.436;2023-10-31T10:39:26;0.77;;;0.60;;
5195;SDS011;2617;51.006;12.436;2023-10-31T10:44:32;1.80;;;0.40;;
5195;SDS011;2617;51.006;12.436;2023-10-31T10:49:34;0.50;;;0.50;;
5195;SDS011;2617;51.006;12.436;2023-10-31T10:54:37;0.63;;;0.40;;
5195;SDS011;2617;51.006;12.436;2023-10-31T10:59:41;0.67;;;0.40;;
5195;SDS011;2617;51.006;12.436;2023-10-31T11:04:41;0.33;;;0.33;;
5195;SDS011;2617;51.006;12.436;2023-10-31T11:09:44;3.33;;;0.70;;
5195;SDS011;2617;51.006;12.436;2023-10-31T11:14:45;1.80;;;0.80;;
5195;SDS011;2617;51.006;12.436;2023-10-31T11:19:47;0.55;;;0.40;;
5195;SDS011;2617;51.006;12.436;2023-10-31T11:24:49;1.60;;;0.40;;
5195;SDS011;2617;51.006;12.436;2023-10-31T11:29:51;0.40;;;0.40;;
5195;SDS011;2617;51.006;12.436;2023-10-31T11:34:53;0.30;;;0.30;;
5195;SDS011;2617;51.006;12.436;2023-10-31T11:45:09;0.40;;;0.40;;
5195;SDS011;2617;51.006;12.436;2023-10-31T11:50:11;0.40;;;0.40;;
5195;SDS011;2617;51.006;12.436;2023-10-31T11:55:13;1.30;;;0.60;;
5195;SDS011;2617;51.006;12.436;2023-10-31T12:00:20;0.50;;;0.50;;
5195;SDS011;2617;51.006;12.436;2023-10-31T12:05:22;0.50;;;0.50;;
5195;SDS011;2617;51.006;12.436;2023-10-31T12:10:24;0.70;;;0.50;;
5195;SDS011;2617;51.006;12.436;2023-10-31T12:15:25;0.40;;;0.40;;
5195;SDS011;2617;51.006;12.436;2023-10-31T12:20:28;0.50;;;0.50;;
5195;SDS011;2617;51.006;12.436;2023-10-31T12:25:30;0.52;;;0.52;;
5195;SDS011;2617;51.006;12.436;2023-10-31T12:30:32;1.13;;;0.67;;
5195;SDS011;2617;51.006;12.436;2023-10-31T12:35:34;4.00;;;1.07;;
5195;SDS011;2617;51.006;12.436;2023-10-31T12:40:35;0.47;;;0.47;;
5195;SDS011;2617;51.006;12.436;2023-10-31T12:45:37;0.70;;;0.50;;
5195;SDS011;2617;51.006;12.436;2023-10-31T12:50:39;1.37;;;0.40;;
5195;SDS011;2617;51.006;12.436;2023-10-31T12:55:42;0.70;;;0.60;;
5195;SDS011;2617;51.006;12.436;2023-10-31T13:00:43;0.40;;;0.40;;
5195;SDS011;2617;51.006;12.436;2023-10-31T13:05:45;0.80;;;0.80;;
5195;SDS011;2617;51.006;12.436;2023-10-31T13:10:47;0.50;;;0.50;;
5195;SDS011;2617;51.006;12.436;2023-10-31T13:15:49;1.67;;;0.60;;
5195;SDS011;2617;51.006;12.436;2023-10-31T13:20:51;0.60;;;0.60;;
5195;SDS011;2617;51.006;12.436;2023-10-31T13:25:53;0.80;;;0.50;;
5195;SDS011;2617;51.006;12.436;2023-10-31T13:30:55;0.40;;;0.40;;
5195;SDS011;2617;51.006;12.436;2023-10-31T13:35:56;0.70;;;0.60;;
5195;SDS011;2617;51.006;12.436;2023-10-31T13:40:58;0.40;;;0.40;;
5195;SDS011;2617;51.006;12.436;2023-10-31T13:46:00;0.40;;;0.40;;
5195;SDS011;2617;51.006;12.436;2023-10-31T13:51:02;0.50;;;0.50;;
5195;SDS011;2617;51.006;12.436;2023-10-31T13:56:04;1.00;;;0.63;;
5195;SDS011;2617;51.006;12.436;2023-10-31T14:01:05;0.50;;;0.50;;
5195;SDS011;2617;51.006;12.436;2023-10-31T14:06:08;0.90;;;0.90;;
5195;SDS011;2617;51.006;12.436;2023-10-31T14:11:09;4.23;;;0.70;;
5195;SDS011;2617;51.006;12.436;2023-10-31T14:16:12;0.70;;;0.70;;
5195;SDS011;2617;51.006;12.436;2023-10-31T14:21:14;0.77;;;0.67;;
5195;SDS011;2617;51.006;12.436;2023-10-31T14:26:17;0.60;;;0.60;;
5195;SDS011;2617;51.006;12.436;2023-10-31T14:31:18;0.90;;;0.90;;
5195;SDS011;2617;51.006;12.436;2023-10-31T14:36:22;0.60;;;0.60;;
5195;SDS011;2617;51.006;12.436;2023-10-31T14:41:24;0.62;;;0.62;;
5195;SDS011;2617;51.006;12.436;2023-10-31T14:46:26;0.67;;;0.60;;
5195;SDS011;2617;51.006;12.436;2023-10-31T14:51:28;1.90;;;0.60;;
5195;SDS011;2617;51.006;12.436;2023-10-31T14:56:30;0.70;;;0.70;;
5195;SDS011;2617;51.006;12.436;2023-10-31T15:01:32;2.10;;;0.60;;
5195;SDS011;2617;51.006;12.436;2023-10-31T15:06:34;4.50;;;0.77;;
5195;SDS011;2617;51.006;12.436;2023-10-31T15:11:36;0.80;;;0.57;;
5195;SDS011;2617;51.006;12.436;2023-10-31T15:16:38;2.53;;;0.60;;
5195;SDS011;2617;51.006;12.436;2023-10-31T15:21:39;1.33;;;1.23;;
5195;SDS011;2617;51.006;12.436;2023-10-31T15:26:41;0.67;;;0.67;;
5195;SDS011;2617;51.006;12.436;2023-10-31T15:31:44;0.60;;;0.60;;
5195;SDS011;2617;51.006;12.436;2023-10-31T15:36:45;1.70;;;0.80;;
5195;SDS011;2617;51.006;12.436;2023-10-31T15:41:47;0.80;;;0.80;;
5195;SDS011;2617;51.006;12.436;2023-10-31T15:46:53;0.60;;;0.60;;
5195;SDS011;2617;51.006;12.436;2023-10-31T15:51:56;0.70;;;0.70;;
5195;SDS011;2617;51.006;12.436;2023-10-31T15:56:58;0.80;;;0.80;;
5195;SDS011;2617;51.006;12.436;2023-10-31T16:02:00;0.60;;;0.60;;
5195;SDS011;2617;51.006;12.436;2023-10-31T16:07:02;1.12;;;1.00;;
5195;SDS011;2617;51.006;12.436;2023-10-31T16:12:05;1.00;;;1.00;;
5195;SDS011;2617;51.006;12.436;2023-10-31T16:17:07;1.23;;;0.77;;
5195;SDS011;2617;51.006;12.436;2023-10-31T16:22:09;0.97;;;0.97;;
5195;SDS011;2617;51.006;12.436;2023-10-31T16:27:11;1.10;;;1.10;;
5195;SDS011;2617;51.006;12.436;2023-10-31T16:32:13;1.17;;;1.10;;
5195;SDS011;2617;51.006;12.436;2023-10-31T16:37:15;0.70;;;0.70;;
5195;SDS011;2617;51.006;12.436;2023-10-31T16:42:18;1.60;;;0.60;;
5195;SDS011;2617;51.006;12.436;2023-10-31T16:47:20;0.80;;;0.80;;
5195;SDS011;2617;51.006;12.436;2023-10-31T16:52:22;0.98;;;0.75;;
5195;SDS011;2617;51.006;12.436;2023-10-31T16:57:24;7.30;;;0.80;;
5195;SDS011;2617;51.006;12.436;2023-10-31T17:02:26;0.70;;;0.70;;
5195;SDS011;2617;51.006;12.436;2023-10-31T17:07:28;5.63;;;1.17;;
5195;SDS011;2617;51.006;12.436;2023-10-31T17:12:30;3.43;;;1.00;;
5195;SDS011;2617;51.006;12.436;2023-10-31T17:17:31;1.15;;;0.90;;
5195;SDS011;2617;51.006;12.436;2023-10-31T17:22:33;0.83;;;0.83;;
5195;SDS011;2617;51.006;12.436;2023-10-31T17:27:35;1.57;;;0.80;;
5195;SDS011;2617;51.006;12.436;2023-10-31T17:32:38;1.67;;;1.07;;
5195;SDS011;2617;51.006;12.436;2023-10-31T17:37:40;0.83;;;0.83;;
5195;SDS011;2617;51.006;12.436;2023-10-31T17:42:42;1.33;;;0.80;;
5195;SDS011;2617;51.006;12.436;2023-10-31T17:47:44;4.00;;;1.10;;
5195;SDS011;2617;51.006;12.436;2023-10-31T17:52:46;3.13;;;1.00;;
5195;SDS011;2617;51.006;12.436;2023-10-31T17:57:48;0.87;;;0.87;;
5195;SDS011;2617;51.006;12.436;2023-10-31T18:02:49;0.93;;;0.70;;
5195;SDS011;2617;51.006;12.436;2023-10-31T18:07:51;1.83;;;0.80;;
5195;SDS011;2617;51.006;12.436;2023-10-31T18:12:53;0.83;;;0.83;;
5195;SDS011;2617;51.006;12.436;2023-10-31T18:17:54;1.50;;;1.30;;
5195;SDS011;2617;51.006;12.436;2023-10-31T18:22:56;2.15;;;1.00;;
5195;SDS011;2617;51.006;12.436;2023-10-31T18:27:59;2.47;;;0.90;;
5195;SDS011;2617;51.006;12.436;2023-10-31T18:33:00;0.90;;;0.90;;
5195;SDS011;2617;51.006;12.436;2023-10-31T18:38:02;1.73;;;1.00;;
5195;SDS011;2617;51.006;12.436;2023-10-31T18:43:05;1.00;;;0.83;;
5195;SDS011;2617;51.006;12.436;2023-10-31T18:48:06;0.93;;;0.90;;
5195;SDS011;2617;51.006;12.436;2023-10-31T18:53:08;1.83;;;1.00;;
5195;SDS011;2617;51.006;12.436;2023-10-31T18:58:10;3.30;;;1.00;;
5195;SDS011;2617;51.006;12.436;2023-10-31T19:03:12;1.40;;;0.80;;
5195;SDS011;2617;51.006;12.436;2023-10-31T19:08:14;1.70;;;0.97;;
5195;SDS011;2617;51.006;12.436;2023-10-31T19:13:16;0.95;;;0.95;;
5195;SDS011;2617;51.006;12.436;2023-10-31T19:18:18;1.10;;;1.00;;
5195;SDS011;2617;51.006;12.436;2023-10-31T19:23:20;1.77;;;1.10;;
5195;SDS011;2617;51.006;12.436;2023-10-31T19:28:21;1.27;;;1.03;;
5195;SDS011;2617;51.006;12.436;2023-10-31T19:33:23;0.77;;;0.77;;
5195;SDS011;2617;51.006;12.436;2023-10-31T19:38:25;0.77;;;0.77;;
5195;SDS011;2617;51.006;12.436;2023-10-31T19:43:27;0.88;;;0.88;;
5195;SDS011;2617;51.006;12.436;2023-10-31T19:48:29;1.80;;;1.47;;
5195;SDS011;2617;51.006;12.436;2023-10-31T19:53:32;1.03;;;0.93;;
5195;SDS011;2617;51.006;12.436;2023-10-31T19:58:34;1.33;;;1.23;;
5195;SDS011;2617;51.006;12.436;2023-10-31T20:03:36;10.63;;;1.00;;
5195;SDS011;2617;51.006;12.436;2023-10-31T20:08:37;1.23;;;1.13;;
5195;SDS011;2617;51.006;12.436;2023-10-31T20:13:39;2.00;;;1.43;;
5195;SDS011;2617;51.006;12.436;2023-10-31T20:18:41;2.73;;;1.40;;
5195;SDS011;2617;51.006;12.436;2023-10-31T20:23:43;2.63;;;1.30;;
5195;SDS011;2617;51.006;12.436;2023-10-31T20:28:45;1.23;;;1.00;;
5195;SDS011;2617;51.006;12.436;2023-10-31T20:33:47;0.83;;;0.83;;
5195;SDS011;2617;51.006;12.436;2023-10-31T20:38:48;3.07;;;1.43;;
5195;SDS011;2617;51.006;12.436;2023-10-31T20:43:50;3.27;;;1.20;;
5195;SDS011;2617;51.006;12.436;2023-10-31T20:48:52;2.77;;;1.63;;
5195;SDS011;2617;51.006;12.436;2023-10-31T20:53:54;1.40;;;1.30;;
5195;SDS011;2617;51.006;12.436;2023-10-31T20:58:55;2.07;;;1.20;;
5195;SDS011;2617;51.006;12.436;2023-10-31T21:03:57;1.57;;;1.43;;
5195;SDS011;2617;51.006;12.436;2023-10-31T21:08:59;1.60;;;1.50;;
5195;SDS011;2617;51.006;12.436;2023-10-31T21:14:00;1.20;;;1.10;;
5195;SDS011;2617;51.006;12.436;2023-10-31T21:19:02;2.30;;;1.20;;
5195;SDS011;2617;51.006;12.436;2023-10-31T21:24:04;1.37;;;1.20;;
5195;SDS011;2617;51.006;12.436;2023-10-31T21:29:06;0.90;;;0.90;;
5195;SDS011;2617;51.006;12.436;2023-10-31T21:34:09;2.10;;;1.27;;
5195;SDS011;2617;51.006;12.436;2023-10-31T21:39:11;2.73;;;1.10;;
5195;SDS011;2617;51.006;12.436;2023-10-31T21:44:14;2.30;;;1.13;;
5195;SDS011;2617;51.006;12.436;2023-10-31T21:49:16;2.33;;;0.90;;
5195;SDS011;2617;51.006;12.436;2023-10-31T21:54:18;1.00;;;0.80;;
5195;SDS011;2617;51.006;12.436;2023-10-31T21:59:19;1.30;;;1.20;;
5195;SDS011;2617;51.006;12.436;2023-10-31T22:04:21;1.13;;;1.10;;
5195;SDS011;2617;51.006;12.436;2023-10-31T22:09:23;3.25;;;1.10;;
5195;SDS011;2617;51.006;12.436;2023-10-31T22:14:25;3.40;;;1.10;;
5195;SDS011;2617;51.006;12.436;2023-10-31T22:19:27;12.18;;;1.55;;
5195;SDS011;2617;51.006;12.436;2023-10-31T22:24:29;1.58;;;1.10;;
5195;SDS011;2617;51.006;12.436;2023-10-31T22:29:30;5.07;;;1.48;;
5195;SDS011;2617;51.006;12.436;2023-10-31T22:34:32;0.97;;;0.97;;
5195;SDS011;2617;51.006;12.436;2023-10-31T22:39:34;7.03;;;1.30;;
5195;SDS011;2617;51.006;12.436;2023-10-31T22:44:36;3.60;;;1.27;;
5195;SDS011;2617;51.006;12.436;2023-10-31T22:49:37;3.53;;;2.37;;
5195;SDS011;2617;51.006;12.436;2023-10-31T22:54:39;1.37;;;1.20;;
5195;SDS011;2617;51.006;12.436;2023-10-31T22:59:41;2.00;;;1.55;;
5195;SDS011;2617;51.006;12.436;2023-10-31T23:04:43;6.73;;;1.40;;
5195;SDS011;2617;51.006;12.436;2023-10-31T23:09:45;2.67;;;1.87;;
5195;SDS011;2617;51.006;12.436;2023-10-31T23:14:48;4.23;;;1.70;;
5195;SDS011;2617;51.006;12.436;2023-10-31T23:19:49;3.17;;;1.93;;
5195;SDS011;2617;51.006;12.436;2023-10-31T23:24:52;3.03;;;1.60;;
5195;SDS011;2617;51.006;12.436;2023-10-31T23:29:53;5.57;;;1.67;;
5195;SDS011;2617;51.006;12.436;2023-10-31T23:34:55;2.20;;;1.70;;
5195;SDS011;2617;51.006;12.436;2023-10-31T23:39:57;2.97;;;2.13;;
5195;SDS011;2617;51.006;12.436;2023-10-31T23:44:58;2.03;;;1.60;;
5195;SDS011;2617;51.006;12.436;2023-10-31T23:50:00;2.40;;;1.60;;
5195;SDS011;2617;51.006;12.436;2023-10-31T23:55:02;3.45;;;1.40;;
